Time;durP1;ratioP1;P1;durP2;ratioP2;P2;SDS_P1;SDS_P2;PMS_P1;PMS_P2;Temp;Humidity;BMP_temperature;BMP_pressure;BME280_temperature;BME280_humidity;BME280_pressure;Samples;Min_cycle;Max_cycle;Signal;HPM_P1;HPM_P2
2023/01/08 05:01:12;;;;;;;15.40;6.83;;;4.50;99.90;;;;;;5753635;23;20500;-72
2023/01/08 05:03:39;;;;;;;8.20;6.20;;;4.50;99.90;;;;;;4988890;28;20754;-72
2023/01/08 05:06:06;;;;;;;6.53;5.80;;;4.50;99.90;;;;;;4988517;28;20459;-73
2023/01/08 05:08:33;;;;;;;8.77;6.20;;;4.50;99.90;;;;;;4988921;28;20974;-73
2023/01/08 05:11:00;;;;;;;7.97;6.37;;;4.40;99.90;;;;;;4988622;28;20495;-73
2023/01/08 05:13:27;;;;;;;8.70;6.87;;;4.50;99.90;;;;;;4988605;28;20455;-73
2023/01/08 05:15:55;;;;;;;9.40;6.40;;;4.50;99.90;;;;;;4988745;28;20474;-73
2023/01/08 05:18:23;;;;;;;8.80;6.40;;;4.60;99.90;;;;;;4988655;28;20550;-73
2023/01/08 05:20:50;;;;;;;9.03;5.90;;;4.60;99.90;;;;;;4987298;28;21060;-73
2023/01/08 05:23:16;;;;;;;7.50;5.80;;;4.70;99.90;;;;;;4988779;28;20459;-73
2023/01/08 05:25:43;;;;;;;8.43;6.40;;;4.70;99.90;;;;;;4988904;28;20463;-73
2023/01/08 05:28:10;;;;;;;8.37;6.07;;;4.80;99.90;;;;;;4987943;28;21284;-73
2023/01/08 05:30:37;;;;;;;7.83;6.23;;;4.70;99.90;;;;;;4988588;28;20521;-74
2023/01/08 05:33:04;;;;;;;10.40;5.40;;;4.70;99.90;;;;;;4988726;28;20501;-73
2023/01/08 05:35:32;;;;;;;8.80;5.73;;;4.80;99.90;;;;;;4988664;28;20935;-73
2023/01/08 05:38:00;;;;;;;7.40;5.40;;;4.80;99.90;;;;;;4988131;28;20459;-73
2023/01/08 05:40:27;;;;;;;7.20;5.80;;;4.80;99.90;;;;;;4988384;28;20439;-73
2023/01/08 05:42:53;;;;;;;7.50;5.43;;;4.90;99.90;;;;;;4988279;28;20958;-74
2023/01/08 05:45:20;;;;;;;8.30;5.47;;;4.90;99.90;;;;;;4988978;28;20464;-74
2023/01/08 05:47:47;;;;;;;6.67;5.20;;;5.00;99.90;;;;;;4987951;28;20456;-72
2023/01/08 05:50:14;;;;;;;6.50;5.47;;;5.10;99.90;;;;;;4988222;28;20862;-73
2023/01/08 05:52:42;;;;;;;6.13;5.53;;;5.10;99.90;;;;;;4988587;28;20470;-73
2023/01/08 05:55:09;;;;;;;6.60;5.47;;;5.20;99.90;;;;;;4988443;28;20463;-73
2023/01/08 05:57:36;;;;;;;8.10;5.87;;;5.30;99.90;;;;;;4987505;28;20451;-73
2023/01/08 06:00:04;;;;;;;5.63;5.07;;;5.30;99.90;;;;;;4988114;28;20474;-73
2023/01/08 06:02:30;;;;;;;6.03;4.63;;;5.30;99.90;;;;;;4987439;28;20491;-73
2023/01/08 06:04:57;;;;;;;6.90;5.10;;;5.40;99.90;;;;;;4988532;28;20455;-73
2023/01/08 06:07:24;;;;;;;6.70;5.33;;;5.50;99.90;;;;;;4987393;28;20456;-73
2023/01/08 06:09:52;;;;;;;8.30;5.60;;;5.60;99.90;;;;;;4988242;28;20459;-73
2023/01/08 06:12:19;;;;;;;6.03;5.43;;;5.60;99.90;;;;;;4988456;28;20483;-74
2023/01/08 06:14:45;;;;;;;5.40;4.50;;;5.70;99.90;;;;;;4987809;28;20451;-73
2023/01/08 06:17:13;;;;;;;7.70;4.93;;;5.80;99.90;;;;;;4987001;28;20252;-73
2023/01/08 06:19:40;;;;;;;7.03;5.17;;;5.90;99.90;;;;;;4987802;28;20456;-73
2023/01/08 06:22:07;;;;;;;9.50;4.90;;;5.90;99.90;;;;;;4987483;28;20845;-73
2023/01/08 06:24:34;;;;;;;6.00;5.40;;;6.00;99.90;;;;;;4987624;28;20463;-73
2023/01/08 06:27:02;;;;;;;8.03;5.17;;;6.00;99.90;;;;;;4987260;28;20838;-73
2023/01/08 06:29:28;;;;;;;6.20;5.27;;;6.00;99.90;;;;;;4987440;28;20482;-73
2023/01/08 06:31:56;;;;;;;6.53;5.60;;;6.10;99.90;;;;;;4987893;28;20502;-73
2023/01/08 06:34:22;;;;;;;4.23;3.67;;;6.10;99.90;;;;;;4987527;28;20991;-73
2023/01/08 06:36:50;;;;;;;5.83;4.27;;;6.10;99.90;;;;;;4986055;28;20903;-72
2023/01/08 06:39:17;;;;;;;6.70;4.33;;;6.20;99.90;;;;;;4987734;28;20463;-73
2023/01/08 06:41:43;;;;;;;4.80;3.97;;;6.20;99.90;;;;;;4987571;28;20474;-74
2023/01/08 06:44:12;;;;;;;4.27;3.87;;;6.30;99.90;;;;;;4987627;28;20469;-73
2023/01/08 06:46:39;;;;;;;4.53;3.93;;;6.30;99.90;;;;;;4986444;28;20940;-73
2023/01/08 06:49:06;;;;;;;3.80;3.47;;;6.40;99.90;;;;;;4987075;28;20982;-73
2023/01/08 06:51:33;;;;;;;5.03;3.27;;;6.40;99.90;;;;;;4987162;28;20499;-73
2023/01/08 06:53:59;;;;;;;5.93;3.20;;;6.50;99.90;;;;;;4986942;28;20942;-73
2023/01/08 06:56:26;;;;;;;6.00;4.07;;;6.50;99.90;;;;;;4986564;28;20966;-73
2023/01/08 06:58:53;;;;;;;3.03;2.57;;;6.60;99.90;;;;;;4987473;28;20830;-73
2023/01/08 07:01:22;;;;;;;3.27;2.70;;;6.60;99.90;;;;;;4986854;28;20483;-74
2023/01/08 07:03:49;;;;;;;2.77;2.53;;;6.70;99.90;;;;;;4986895;28;20519;-74
2023/01/08 07:06:17;;;;;;;2.43;2.23;;;6.80;99.90;;;;;;4986442;28;20460;-73
2023/01/08 07:08:45;;;;;;;3.20;2.70;;;6.80;99.90;;;;;;4987323;28;20467;-73
2023/01/08 07:11:12;;;;;;;2.87;2.43;;;6.90;99.90;;;;;;4987029;28;20503;-74
2023/01/08 07:13:39;;;;;;;3.40;2.70;;;6.90;99.90;;;;;;4986069;28;20440;-74
2023/01/08 07:16:06;;;;;;;2.63;2.40;;;7.00;99.90;;;;;;4986183;28;20455;-69
2023/01/08 07:18:35;;;;;;;2.83;2.53;;;7.00;99.90;;;;;;4986961;28;20455;-69
2023/01/08 07:21:02;;;;;;;2.80;2.57;;;7.10;99.90;;;;;;4987171;28;20526;-70
2023/01/08 07:23:29;;;;;;;2.80;2.60;;;7.10;99.90;;;;;;4986723;28;20684;-70
2023/01/08 07:25:59;;;;;;;3.10;2.43;;;7.20;99.90;;;;;;4986524;28;20483;-70
2023/01/08 07:28:26;;;;;;;2.43;2.23;;;7.20;99.90;;;;;;4986728;28;20435;-70
2023/01/08 07:30:52;;;;;;;3.00;2.70;;;7.30;99.90;;;;;;4986173;28;20503;-70
2023/01/08 07:33:19;;;;;;;3.40;2.57;;;7.30;99.90;;;;;;4986555;28;20990;-70
2023/01/08 07:35:53;;;;;;;3.33;2.67;;;7.30;99.90;;;;;;4986789;28;20460;-71
2023/01/08 07:38:19;;;;;;;2.90;2.70;;;7.40;99.90;;;;;;4986623;28;20444;-70
2023/01/08 07:40:46;;;;;;;3.27;2.97;;;7.40;99.90;;;;;;4986217;28;20991;-70
2023/01/08 07:43:13;;;;;;;3.57;2.90;;;7.40;99.90;;;;;;4986119;28;20481;-70
2023/01/08 07:45:41;;;;;;;3.23;2.63;;;7.50;99.90;;;;;;4986392;28;21243;-70
2023/01/08 07:48:09;;;;;;;5.40;2.50;;;7.50;99.90;;;;;;4985964;28;20459;-69
2023/01/08 07:50:39;;;;;;;2.47;2.27;;;7.60;99.90;;;;;;4986338;28;20499;-70
2023/01/08 07:53:07;;;;;;;2.53;2.33;;;7.60;99.90;;;;;;4986361;28;20461;-70
2023/01/08 07:55:34;;;;;;;2.40;2.20;;;7.70;99.90;;;;;;4985439;28;20778;-70
2023/01/08 07:58:00;;;;;;;1.83;1.70;;;7.90;99.90;;;;;;4985161;28;20462;-68
2023/01/08 08:00:27;;;;;;;3.60;2.50;;;8.00;99.90;;;;;;4986156;28;20451;-70
2023/01/08 08:02:54;;;;;;;3.77;2.10;;;7.90;99.90;;;;;;4985765;28;20459;-70
2023/01/08 08:05:21;;;;;;;2.20;2.00;;;7.90;99.90;;;;;;4985974;28;20458;-69
2023/01/08 08:07:48;;;;;;;2.20;2.00;;;7.90;99.90;;;;;;4985123;28;20949;-69
2023/01/08 08:10:16;;;;;;;3.03;2.20;;;8.00;99.90;;;;;;4986030;28;20455;-70
2023/01/08 08:12:44;;;;;;;2.23;1.93;;;8.00;99.90;;;;;;4985172;28;21261;-70
2023/01/08 08:15:11;;;;;;;3.70;2.00;;;8.00;99.90;;;;;;4986141;28;20458;-70
2023/01/08 08:17:38;;;;;;;2.73;2.07;;;8.00;99.90;;;;;;4985430;28;20455;-70
2023/01/08 08:20:06;;;;;;;3.00;1.97;;;8.00;99.90;;;;;;4985983;28;20974;-71
2023/01/08 08:22:33;;;;;;;2.63;2.20;;;8.00;99.90;;;;;;4984893;28;20460;-71
2023/01/08 08:24:59;;;;;;;1.87;1.63;;;8.10;99.90;;;;;;4985262;28;20450;-71
2023/01/08 08:27:27;;;;;;;2.30;1.90;;;8.10;99.90;;;;;;4989062;28;20462;-71
2023/01/08 08:29:54;;;;;;;2.23;1.93;;;8.10;99.90;;;;;;4989654;28;20944;-70
2023/01/08 08:32:21;;;;;;;4.63;1.70;;;8.20;99.90;;;;;;4989389;28;20494;-68
2023/01/08 08:34:49;;;;;;;2.90;1.80;;;8.10;99.90;;;;;;4989578;28;20814;-69
2023/01/08 08:37:16;;;;;;;1.63;1.53;;;8.20;99.90;;;;;;4989109;28;20479;-68
2023/01/08 08:39:43;;;;;;;2.20;1.73;;;8.20;99.90;;;;;;4989992;28;20819;-68
2023/01/08 08:42:09;;;;;;;1.80;1.70;;;8.20;99.90;;;;;;4989534;28;20472;-70
2023/01/08 08:44:37;;;;;;;3.20;2.10;;;8.20;99.90;;;;;;4989626;28;20446;-70
2023/01/08 08:47:07;;;;;;;1.90;1.80;;;8.20;99.90;;;;;;4989316;28;20459;-69
2023/01/08 08:49:35;;;;;;;2.33;2.13;;;8.20;99.90;;;;;;4989870;28;20466;-70
2023/01/08 08:52:02;;;;;;;1.97;1.87;;;8.20;99.90;;;;;;4989180;28;20586;-70
2023/01/08 08:54:28;;;;;;;2.53;1.67;;;8.20;99.90;;;;;;4988994;28;20458;-70
2023/01/08 08:56:55;;;;;;;4.17;2.40;;;8.20;99.90;;;;;;4988719;28;20459;-70
2023/01/08 08:59:22;;;;;;;2.00;1.80;;;8.20;99.90;;;;;;4989677;28;20820;-70
2023/01/08 09:01:50;;;;;;;2.30;2.00;;;8.20;99.90;;;;;;4989012;28;21034;-69
2023/01/08 09:04:17;;;;;;;2.13;1.90;;;8.30;99.90;;;;;;4988884;28;20447;-69
2023/01/08 09:06:44;;;;;;;2.20;1.80;;;8.30;99.90;;;;;;4988691;28;20458;-68
2023/01/08 09:09:10;;;;;;;1.80;1.70;;;8.30;99.90;;;;;;4988920;28;20463;-69
2023/01/08 09:11:37;;;;;;;4.33;1.90;;;8.30;99.90;;;;;;4985755;28;20498;-68
2023/01/08 09:14:04;;;;;;;3.30;1.97;;;8.40;99.90;;;;;;4988156;28;20469;-68
2023/01/08 09:16:31;;;;;;;2.20;2.00;;;8.40;99.90;;;;;;4988331;28;20455;-68
2023/01/08 09:18:59;;;;;;;2.73;2.40;;;8.30;99.90;;;;;;4989121;28;20854;-68
2023/01/08 09:21:26;;;;;;;2.90;2.00;;;8.30;99.90;;;;;;4991998;28;20463;-68
2023/01/08 09:23:53;;;;;;;2.90;1.67;;;8.30;99.90;;;;;;4992574;28;20455;-68
2023/01/08 09:26:20;;;;;;;2.30;1.87;;;8.30;99.90;;;;;;4990720;28;20454;-67
2023/01/08 09:28:47;;;;;;;3.30;2.37;;;8.30;99.90;;;;;;4988984;28;20446;-68
2023/01/08 09:31:14;;;;;;;5.77;2.23;;;8.30;99.90;;;;;;4989232;28;20503;-69
2023/01/08 09:33:40;;;;;;;2.83;1.87;;;8.30;99.90;;;;;;4989500;28;20455;-69
2023/01/08 09:36:11;;;;;;;2.10;1.90;;;8.30;99.90;;;;;;4986699;28;20994;-68
2023/01/08 09:38:38;;;;;;;2.73;1.80;;;8.30;99.90;;;;;;4985887;28;20447;-68
2023/01/08 09:41:09;;;;;;;2.80;1.73;;;8.30;99.90;;;;;;4987954;28;20502;-69
2023/01/08 09:43:40;;;;;;;1.37;1.27;;;8.30;99.90;;;;;;4988686;28;20555;-69
2023/01/08 09:46:08;;;;;;;2.50;1.80;;;8.30;99.90;;;;;;4987998;28;20447;-70
2023/01/08 09:48:37;;;;;;;4.63;3.00;;;8.30;99.90;;;;;;4987822;28;20462;-70
2023/01/08 09:51:06;;;;;;;2.97;2.13;;;8.30;99.90;;;;;;4988551;28;20475;-69
2023/01/08 09:53:34;;;;;;;2.13;1.97;;;8.30;99.90;;;;;;4988077;28;20459;-70
2023/01/08 09:56:04;;;;;;;3.40;3.10;;;8.30;99.90;;;;;;4988048;28;20974;-69
2023/01/08 09:58:37;;;;;;;2.90;2.70;;;8.40;99.90;;;;;;4991042;28;20451;-70
2023/01/08 10:01:05;;;;;;;2.17;1.97;;;8.40;99.90;;;;;;4990604;28;20475;-71
2023/01/08 10:03:41;;;;;;;2.53;2.30;;;8.40;99.90;;;;;;4989252;28;20463;-68
2023/01/08 10:06:09;;;;;;;1.80;1.70;;;8.40;99.90;;;;;;4988403;28;20454;-69
2023/01/08 10:08:38;;;;;;;2.63;2.10;;;8.40;99.90;;;;;;4988326;28;20960;-70
2023/01/08 10:11:06;;;;;;;2.23;2.03;;;8.40;99.90;;;;;;4988641;28;20843;-69
2023/01/08 10:13:34;;;;;;;2.20;2.00;;;8.40;99.90;;;;;;4988037;28;20538;-69
2023/01/08 10:16:03;;;;;;;2.60;2.17;;;8.50;99.90;;;;;;4988362;28;20451;-68
2023/01/08 10:18:30;;;;;;;3.43;2.17;;;8.50;99.90;;;;;;4991214;28;20464;-69
2023/01/08 10:20:57;;;;;;;2.10;1.90;;;8.50;99.90;;;;;;4988695;28;20842;-69
2023/01/08 10:23:24;;;;;;;2.50;2.10;;;8.50;99.90;;;;;;4987925;28;20505;-70
2023/01/08 10:25:55;;;;;;;2.03;1.90;;;8.60;99.90;;;;;;4987327;28;20620;-69
2023/01/08 10:28:24;;;;;;;1.97;1.70;;;8.60;99.90;;;;;;4988323;28;20435;-75
2023/01/08 10:30:52;;;;;;;2.93;1.93;;;8.60;99.90;;;;;;4988369;28;20914;-70
2023/01/08 10:33:24;;;;;;;2.20;2.00;;;8.60;99.90;;;;;;4988611;28;20494;-69
2023/01/08 10:35:54;;;;;;;3.80;2.70;;;8.60;99.90;;;;;;4990570;28;20432;-69
2023/01/08 10:38:28;;;;;;;4.63;2.80;;;8.60;99.90;;;;;;4987907;28;20456;-70
2023/01/08 10:40:57;;;;;;;3.70;2.70;;;8.70;99.90;;;;;;4988708;28;20483;-68
2023/01/08 10:43:29;;;;;;;4.67;3.30;;;8.70;99.90;;;;;;4990680;28;20462;-72
2023/01/08 10:45:58;;;;;;;5.07;3.50;;;8.70;99.90;;;;;;4987752;28;20455;-70
2023/01/08 10:48:31;;;;;;;2.20;2.00;;;8.70;99.90;;;;;;4987377;28;20452;-70
2023/01/08 10:51:06;;;;;;;2.63;2.10;;;8.70;99.90;;;;;;4987007;28;21003;-71
2023/01/08 10:53:33;;;;;;;2.40;2.20;;;8.80;99.90;;;;;;4986850;28;20502;-71
2023/01/08 10:56:04;;;;;;;3.83;2.40;;;8.80;99.90;;;;;;4986667;28;20459;-67
2023/01/08 10:58:41;;;;;;;8.20;3.67;;;8.80;99.90;;;;;;4987496;28;20458;-68
2023/01/08 11:01:15;;;;;;;4.40;3.30;;;8.80;99.90;;;;;;4986644;28;21450;-69
2023/01/08 11:03:42;;;;;;;3.20;2.57;;;8.80;99.90;;;;;;4987431;28;20831;-71
2023/01/08 11:06:13;;;;;;;5.00;2.73;;;8.80;99.90;;;;;;4986661;28;20458;-70
2023/01/08 11:08:52;;;;;;;3.30;2.47;;;8.80;99.90;;;;;;4989709;28;20462;-69
2023/01/08 11:11:20;;;;;;;4.00;2.50;;;8.80;99.90;;;;;;4983900;28;20995;-70
2023/01/08 11:13:58;;;;;;;5.40;2.47;;;8.80;99.90;;;;;;4987675;28;20452;-69
2023/01/08 11:16:33;;;;;;;3.30;2.20;;;8.90;99.90;;;;;;4985736;28;20459;-69
2023/01/08 11:19:00;;;;;;;2.73;2.30;;;8.90;99.90;;;;;;4986485;28;20439;-69
2023/01/08 11:21:30;;;;;;;5.63;2.50;;;8.90;99.90;;;;;;4985133;28;20475;-69
2023/01/08 11:24:17;;;;;;;6.43;3.87;;;9.00;99.90;;;;;;4986775;28;20491;-69
2023/01/08 11:26:49;;;;;;;2.87;2.57;;;8.90;99.90;;;;;;4986240;28;20466;-70
2023/01/08 11:29:22;;;;;;;3.77;2.73;;;9.00;99.90;;;;;;4986263;28;20459;-70
2023/01/08 11:31:55;;;;;;;3.30;2.33;;;9.00;99.90;;;;;;4986420;28;20502;-69
2023/01/08 11:34:28;;;;;;;4.63;2.97;;;9.00;99.90;;;;;;4986509;28;20537;-71
2023/01/08 11:37:01;;;;;;;2.10;1.70;;;9.00;99.90;;;;;;4985690;28;20462;-72
2023/01/08 11:39:28;;;;;;;3.40;2.23;;;9.10;99.90;;;;;;4986263;28;20919;-69
2023/01/08 11:42:14;;;;;;;4.23;2.60;;;9.00;99.90;;;;;;4986305;28;20863;-70
2023/01/08 11:44:50;;;;;;;2.37;1.90;;;9.10;99.90;;;;;;4986456;28;20443;-70
2023/01/08 11:47:26;;;;;;;2.80;2.20;;;9.10;99.90;;;;;;4985618;28;20458;-72
2023/01/08 11:50:05;;;;;;;1.87;1.77;;;9.20;99.90;;;;;;4986726;28;20440;-70
2023/01/08 11:52:45;;;;;;;2.33;1.97;;;9.20;99.90;;;;;;4986324;28;20515;-72
2023/01/08 11:55:32;;;;;;;1.70;1.60;;;9.20;99.90;;;;;;4986199;28;20526;-70
2023/01/08 11:58:15;;;;;;;1.80;1.70;;;9.30;99.90;;;;;;4985716;28;20444;-72
2023/01/08 12:00:55;;;;;;;2.87;1.47;;;9.30;99.90;;;;;;4986100;28;20491;-72
2023/01/08 12:03:30;;;;;;;2.70;1.70;;;9.30;99.90;;;;;;4987613;28;20448;-70
2023/01/08 12:06:15;;;;;;;1.77;1.67;;;9.40;99.90;;;;;;4985766;28;20455;-70
2023/01/08 12:08:52;;;;;;;1.30;1.20;;;9.40;99.90;;;;;;4983857;28;20452;-71
2023/01/08 12:11:26;;;;;;;1.50;1.40;;;9.50;99.90;;;;;;4983883;28;20786;-72
2023/01/08 12:14:12;;;;;;;1.40;1.30;;;9.50;99.90;;;;;;4983360;28;20306;-70
2023/01/08 12:16:56;;;;;;;1.40;1.30;;;9.60;99.90;;;;;;4966148;28;20437;-70
2023/01/08 12:19:34;;;;;;;3.23;1.30;;;9.60;99.90;;;;;;4984580;28;20458;-72
2023/01/08 12:22:14;;;;;;;1.93;1.67;;;9.70;99.90;;;;;;4985914;28;20471;-71
2023/01/08 12:24:57;;;;;;;1.47;1.37;;;9.70;99.90;;;;;;4985732;28;20861;-71
2023/01/08 12:27:34;;;;;;;1.30;1.20;;;9.70;99.90;;;;;;4986204;28;20439;-72
2023/01/08 12:30:16;;;;;;;1.27;1.17;;;9.70;99.90;;;;;;4985850;28;20970;-71
2023/01/08 12:32:45;;;;;;;1.80;1.40;;;9.70;99.90;;;;;;4987191;28;20495;-73
2023/01/08 12:35:18;;;;;;;1.40;1.20;;;9.60;99.90;;;;;;4985920;28;20463;-72
2023/01/08 12:37:51;;;;;;;1.43;1.33;;;9.70;99.90;;;;;;4985896;28;20831;-71
2023/01/08 12:40:24;;;;;;;2.13;1.63;;;9.60;99.90;;;;;;4986089;28;20979;-72
2023/01/08 12:42:51;;;;;;;1.77;1.53;;;9.60;99.90;;;;;;4987339;28;20443;-71
2023/01/08 12:45:27;;;;;;;1.70;1.60;;;9.60;99.90;;;;;;4986695;28;20471;-70
2023/01/08 12:47:58;;;;;;;1.50;1.40;;;9.60;99.90;;;;;;4986018;28;20443;-72
2023/01/08 12:50:50;;;;;;;1.40;1.30;;;9.60;99.90;;;;;;4986689;28;20790;-71
2023/01/08 12:53:26;;;;;;;2.90;1.67;;;9.60;99.90;;;;;;4979036;28;20502;-72
2023/01/08 12:56:02;;;;;;;1.83;1.50;;;9.60;99.90;;;;;;4985507;28;20911;-72
2023/01/08 12:58:39;;;;;;;1.60;1.50;;;9.60;99.90;;;;;;4985983;28;20463;-72
2023/01/08 13:01:24;;;;;;;1.37;1.27;;;9.60;99.90;;;;;;4986375;28;20494;-71
2023/01/08 13:03:52;;;;;;;1.80;1.30;;;9.60;99.90;;;;;;4985815;28;20444;-71
2023/01/08 13:06:20;;;;;;;1.57;1.47;;;9.60;99.90;;;;;;4985580;28;20468;-71
2023/01/08 13:08:51;;;;;;;1.37;1.27;;;9.60;99.90;;;;;;4985586;28;20952;-74
2023/01/08 13:11:26;;;;;;;2.33;1.20;;;9.70;99.90;;;;;;4986574;28;20880;-73
2023/01/08 13:14:00;;;;;;;2.27;1.40;;;9.70;99.90;;;;;;4989359;28;20908;-72
2023/01/08 13:16:30;;;;;;;1.33;1.13;;;9.70;99.90;;;;;;4988342;28;20460;-71
2023/01/08 13:18:59;;;;;;;1.50;1.40;;;9.70;99.90;;;;;;4989236;28;20451;-75
2023/01/08 13:21:35;;;;;;;1.50;1.40;;;9.70;99.90;;;;;;4989487;28;21338;-72
2023/01/08 13:24:05;;;;;;;1.83;1.40;;;9.80;99.90;;;;;;4989264;28;20501;-72
2023/01/08 13:26:34;;;;;;;1.43;1.33;;;9.80;99.90;;;;;;4988180;28;20440;-71
2023/01/08 13:29:23;;;;;;;1.73;1.27;;;9.90;99.90;;;;;;4988894;28;20587;-73
2023/01/08 13:31:51;;;;;;;1.20;1.10;;;9.90;99.90;;;;;;4988856;28;20565;-73
2023/01/08 13:34:33;;;;;;;1.30;1.20;;;9.90;99.90;;;;;;4988653;28;20510;-72
2023/01/08 13:37:00;;;;;;;1.30;1.20;;;9.90;99.90;;;;;;4988128;28;20462;-71
2023/01/08 13:39:34;;;;;;;1.40;1.30;;;9.90;99.90;;;;;;4988723;28;20461;-72
2023/01/08 13:42:05;;;;;;;1.37;1.27;;;9.90;99.90;;;;;;4988612;28;20909;-73
2023/01/08 13:44:34;;;;;;;1.80;1.20;;;10.00;99.90;;;;;;4989011;28;20467;-73
2023/01/08 13:47:04;;;;;;;1.20;1.10;;;9.90;99.90;;;;;;4988029;28;20487;-71
2023/01/08 13:49:38;;;;;;;1.20;1.10;;;10.00;99.90;;;;;;4988482;28;21039;-72
2023/01/08 13:52:05;;;;;;;1.63;1.50;;;10.00;99.90;;;;;;4988067;28;20487;-73
2023/01/08 13:54:36;;;;;;;1.60;1.50;;;10.00;99.90;;;;;;4987916;28;20511;-73
2023/01/08 13:57:06;;;;;;;1.50;1.40;;;10.00;99.90;;;;;;4985165;28;20448;-73
2023/01/08 13:59:42;;;;;;;2.07;1.73;;;10.00;99.90;;;;;;4987457;28;20958;-73
2023/01/08 14:02:26;;;;;;;3.03;2.20;;;9.90;99.90;;;;;;4988281;28;20506;-72
2023/01/08 14:04:54;;;;;;;4.33;2.90;;;10.00;99.90;;;;;;4988475;28;20460;-70
2023/01/08 14:07:22;;;;;;;2.40;1.60;;;10.00;99.90;;;;;;4987933;28;20448;-72
2023/01/08 14:09:49;;;;;;;3.00;1.90;;;10.00;99.90;;;;;;4988914;28;21008;-72
2023/01/08 14:12:19;;;;;;;1.97;1.77;;;10.00;99.90;;;;;;4987979;28;20474;-71
2023/01/08 14:14:50;;;;;;;2.47;2.27;;;10.00;99.90;;;;;;4987561;28;20463;-71
2023/01/08 14:17:18;;;;;;;4.43;3.17;;;10.00;99.90;;;;;;4987502;28;20442;-71
2023/01/08 14:19:47;;;;;;;4.07;3.17;;;10.10;99.90;;;;;;4988048;28;20462;-73
2023/01/08 14:22:19;;;;;;;6.30;2.60;;;10.10;99.90;;;;;;4987723;28;20519;-73
2023/01/08 14:24:54;;;;;;;1.47;1.37;;;10.10;99.90;;;;;;4987735;28;20452;-67
2023/01/08 14:27:23;;;;;;;6.20;1.50;;;10.10;99.90;;;;;;4985811;28;20506;-67
2023/01/08 14:29:50;;;;;;;2.50;1.90;;;10.10;99.90;;;;;;4987906;28;21238;-67
2023/01/08 14:32:19;;;;;;;1.73;1.50;;;10.10;99.90;;;;;;4986477;28;20475;-72
2023/01/08 14:34:49;;;;;;;1.90;1.77;;;10.10;99.90;;;;;;4986565;28;20520;-71
2023/01/08 14:37:17;;;;;;;2.07;1.80;;;10.20;99.90;;;;;;4985723;28;20456;-72
2023/01/08 14:39:47;;;;;;;2.03;1.40;;;10.20;99.90;;;;;;4992471;28;20466;-72
2023/01/08 14:45:05;;;;;;;1.70;1.60;;;10.30;99.90;;;;;;4991539;28;20427;-72
2023/01/08 14:47:36;;;;;;;2.40;2.03;;;10.30;99.90;;;;;;4986412;28;20459;-74
2023/01/08 14:50:06;;;;;;;4.17;2.40;;;10.30;99.90;;;;;;4986893;28;20455;-71
2023/01/08 14:52:34;;;;;;;4.80;3.23;;;10.30;99.90;;;;;;4986511;28;21339;-71
2023/01/08 14:55:03;;;;;;;4.37;2.70;;;10.20;99.90;;;;;;4987320;28;20551;-71
2023/01/08 14:57:30;;;;;;;1.40;1.30;;;10.20;99.90;;;;;;4988040;28;21299;-71
2023/01/08 15:00:00;;;;;;;3.40;2.20;;;10.20;99.90;;;;;;4991083;28;20456;-72
2023/01/08 15:02:29;;;;;;;3.30;2.27;;;10.20;99.90;;;;;;4991410;28;20483;-72
2023/01/08 15:05:14;;;;;;;3.87;2.70;;;10.20;99.90;;;;;;4991457;28;20451;-71
2023/01/08 15:07:43;;;;;;;5.77;4.10;;;10.20;99.90;;;;;;4991518;28;20534;-72
2023/01/08 15:10:32;;;;;;;7.00;4.53;;;10.20;99.90;;;;;;4989514;28;20519;-72
2023/01/08 15:13:02;;;;;;;6.70;5.10;;;10.20;99.90;;;;;;4986936;28;20484;-71
2023/01/08 15:15:31;;;;;;;5.73;4.47;;;10.20;99.90;;;;;;4986331;28;20459;-70
2023/01/08 15:17:58;;;;;;;3.10;2.80;;;10.10;99.90;;;;;;4985511;28;20939;-71
2023/01/08 15:20:30;;;;;;;4.47;2.80;;;10.10;99.90;;;;;;4986385;28;21038;-71
2023/01/08 15:22:58;;;;;;;5.90;3.43;;;10.10;99.90;;;;;;4986483;28;20943;-73
2023/01/08 15:25:28;;;;;;;6.73;4.23;;;10.10;99.90;;;;;;4986816;28;20454;-73
2023/01/08 15:27:58;;;;;;;8.97;4.73;;;10.10;99.90;;;;;;4985515;28;21574;-76
2023/01/08 15:30:30;;;;;;;6.50;3.90;;;10.10;99.90;;;;;;4985307;28;20444;-72
2023/01/08 15:33:07;;;;;;;1.80;1.70;;;10.00;99.90;;;;;;4986291;28;20476;-71
2023/01/08 15:35:35;;;;;;;2.27;2.10;;;10.00;99.90;;;;;;4985425;28;20451;-72
2023/01/08 15:38:02;;;;;;;3.20;2.57;;;10.00;99.90;;;;;;4985628;28;20471;-72
2023/01/08 15:40:29;;;;;;;3.43;2.37;;;10.00;99.90;;;;;;4986559;28;20459;-72
2023/01/08 15:43:11;;;;;;;2.43;2.10;;;10.10;99.90;;;;;;4986558;28;20460;-73
2023/01/08 15:45:40;;;;;;;2.45;2.00;;;10.10;99.90;;;;;;4987540;28;20436;-71
2023/01/08 15:48:08;;;;;;;14.27;6.67;;;10.30;99.90;;;;;;4987001;28;20227;-71
2023/01/08 15:50:38;;;;;;;6.87;4.23;;;10.40;99.90;;;;;;4987467;28;20475;-74
2023/01/08 15:53:07;;;;;;;1.60;1.50;;;10.30;99.90;;;;;;4988108;28;20439;-72
2023/01/08 15:55:35;;;;;;;2.60;2.20;;;10.30;99.90;;;;;;4987545;28;20459;-72
2023/01/08 15:58:02;;;;;;;2.50;2.30;;;10.30;99.90;;;;;;4986009;28;20455;-71
2023/01/08 16:00:32;;;;;;;6.43;4.47;;;10.30;99.90;;;;;;4985562;28;20880;-72
2023/01/08 16:02:59;;;;;;;4.77;3.80;;;10.30;99.90;;;;;;4985914;28;20447;-75
2023/01/08 16:05:29;;;;;;;4.17;3.53;;;10.20;99.90;;;;;;4985163;28;20452;-71
2023/01/08 16:07:57;;;;;;;7.30;4.43;;;10.20;99.90;;;;;;4984806;28;20452;-72
2023/01/08 16:10:24;;;;;;;10.00;4.47;;;10.30;99.90;;;;;;4983605;28;20455;-70
2023/01/08 16:12:51;;;;;;;6.37;4.60;;;10.30;99.90;;;;;;4985487;28;20451;-71
2023/01/08 16:15:18;;;;;;;6.30;4.70;;;10.30;99.90;;;;;;4985543;28;20495;-73
2023/01/08 16:17:45;;;;;;;7.77;5.73;;;10.30;99.90;;;;;;4985673;28;20559;-74
2023/01/08 16:20:13;;;;;;;9.53;7.83;;;10.30;99.90;;;;;;4986017;28;20460;-77
2023/01/08 16:22:40;;;;;;;8.00;6.50;;;10.30;99.90;;;;;;4986487;28;20455;-74
2023/01/08 16:25:09;;;;;;;8.43;5.60;;;10.30;99.90;;;;;;4986088;28;20456;-74
2023/01/08 16:27:37;;;;;;;7.20;4.60;;;10.30;99.90;;;;;;4985382;28;20460;-71
2023/01/08 16:30:05;;;;;;;6.50;3.90;;;10.30;99.90;;;;;;4985389;28;20479;-73
2023/01/08 16:32:32;;;;;;;7.73;4.60;;;10.30;99.90;;;;;;4985752;28;20471;-70
2023/01/08 16:34:59;;;;;;;6.67;4.47;;;10.20;99.90;;;;;;4986273;28;20503;-71
2023/01/08 16:37:26;;;;;;;5.23;4.07;;;10.20;99.90;;;;;;4984939;28;20981;-71
2023/01/08 16:39:52;;;;;;;9.10;5.00;;;10.20;99.90;;;;;;4985933;28;20459;-71
2023/01/08 16:42:20;;;;;;;6.10;4.20;;;10.20;99.90;;;;;;4985996;28;20490;-71
2023/01/08 16:44:56;;;;;;;5.20;3.77;;;10.20;99.90;;;;;;4985596;28;20451;-71
2023/01/08 16:47:23;;;;;;;4.73;3.67;;;10.20;99.90;;;;;;4987109;28;21452;-72
2023/01/08 16:49:50;;;;;;;5.03;3.70;;;10.20;99.90;;;;;;4989320;28;20455;-71
2023/01/08 16:52:17;;;;;;;6.20;4.40;;;10.10;99.90;;;;;;4989281;28;20475;-69
2023/01/08 16:54:44;;;;;;;4.87;3.83;;;10.20;99.90;;;;;;4989408;28;20491;-70
2023/01/08 16:57:11;;;;;;;5.23;3.70;;;10.20;99.90;;;;;;4988797;28;20466;-71
2023/01/08 16:59:39;;;;;;;6.83;4.53;;;10.10;99.90;;;;;;4988939;28;20463;-70
2023/01/08 17:02:06;;;;;;;11.60;5.60;;;10.20;99.90;;;;;;4989324;28;20493;-73
2023/01/08 17:04:33;;;;;;;12.33;6.70;;;10.10;99.90;;;;;;4988600;28;20535;-71
2023/01/08 17:07:00;;;;;;;13.40;7.57;;;10.10;99.90;;;;;;4989217;28;20451;-71
2023/01/08 17:09:27;;;;;;;15.43;8.00;;;10.10;99.90;;;;;;4989359;28;20455;-71
2023/01/08 17:11:54;;;;;;;10.53;7.53;;;10.10;99.90;;;;;;4989295;28;20999;-71
2023/01/08 17:14:20;;;;;;;11.23;7.40;;;10.10;99.90;;;;;;4989433;28;20505;-71
2023/01/08 17:16:49;;;;;;;10.43;7.03;;;10.10;99.90;;;;;;4988776;28;20455;-71
2023/01/08 17:19:16;;;;;;;9.00;6.20;;;10.10;99.90;;;;;;4989301;28;20454;-71
2023/01/08 17:21:44;;;;;;;12.90;7.80;;;10.10;99.90;;;;;;4988874;28;20479;-71
2023/01/08 17:24:12;;;;;;;7.70;6.43;;;10.10;99.90;;;;;;4986619;28;20467;-71
2023/01/08 17:26:38;;;;;;;11.90;7.37;;;10.10;99.90;;;;;;4988239;28;20447;-69
2023/01/08 17:29:05;;;;;;;10.10;7.13;;;10.00;99.90;;;;;;4989085;28;20451;-71
2023/01/08 17:31:38;;;;;;;8.43;6.70;;;10.00;99.90;;;;;;4988532;28;20975;-70
2023/01/08 17:34:07;;;;;;;8.87;6.50;;;10.00;99.90;;;;;;4988816;28;20484;-72
2023/01/08 17:36:35;;;;;;;6.97;5.80;;;10.00;99.90;;;;;;4988216;28;20455;-71
2023/01/08 17:39:02;;;;;;;11.47;6.50;;;10.00;99.90;;;;;;4988361;28;20463;-70
2023/01/08 17:44:13;;;;;;;10.70;8.13;;;10.00;99.90;;;;;;4988780;28;20510;-74
2023/01/08 17:46:43;;;;;;;10.87;7.80;;;10.00;99.90;;;;;;4988255;28;20471;-70
2023/01/08 17:49:12;;;;;;;12.90;9.23;;;10.00;99.90;;;;;;4988609;28;20464;-68
2023/01/08 17:51:41;;;;;;;9.70;7.93;;;10.00;99.90;;;;;;4987678;28;21013;-70
2023/01/08 17:54:10;;;;;;;16.03;10.70;;;10.00;99.90;;;;;;4988042;28;20832;-70
2023/01/08 17:56:37;;;;;;;15.73;9.03;;;10.00;99.90;;;;;;4987883;28;20447;-69
2023/01/08 17:59:04;;;;;;;12.70;9.80;;;9.90;99.90;;;;;;4987483;28;20487;-70
2023/01/08 18:01:32;;;;;;;11.87;9.47;;;10.00;99.90;;;;;;4988218;28;20488;-71
2023/01/08 18:03:59;;;;;;;13.77;9.70;;;9.90;99.90;;;;;;4988148;28;20939;-70
2023/01/08 18:06:27;;;;;;;23.70;10.30;;;9.90;99.90;;;;;;4987173;28;20463;-69
2023/01/08 18:08:54;;;;;;;15.13;9.97;;;9.90;99.90;;;;;;4988341;28;20456;-72
2023/01/08 18:11:21;;;;;;;14.80;9.80;;;9.90;99.90;;;;;;4988458;28;20471;-71